sensor_id;sensor_type;location;lat;lon;timestamp;pressure;altitude;pressure_sealevel;temperature;humidity
81608;BME280;71022;48.122;11.576;2023-07-29T00:00:10;95342.47;;;18.78;75.43
81608;BME280;71022;48.122;11.576;2023-07-29T00:02:40;95342.13;;;18.73;75.66
81608;BME280;71022;48.122;11.576;2023-07-29T00:05:08;95343.31;;;18.75;75.73
81608;BME280;71022;48.122;11.576;2023-07-29T00:07:35;95328.16;;;18.80;75.13
81608;BME280;71022;48.122;11.576;2023-07-29T00:10:03;95330.16;;;18.76;75.19
81608;BME280;71022;48.122;11.576;2023-07-29T00:12:30;95342.06;;;18.80;74.98
81608;BME280;71022;48.122;11.576;2023-07-29T00:14:57;95342.03;;;18.84;74.63
81608;BME280;71022;48.122;11.576;2023-07-29T00:17:24;95335.13;;;18.99;74.22
81608;BME280;71022;48.122;11.576;2023-07-29T00:19:52;95335.84;;;19.03;74.19
81608;BME280;71022;48.122;11.576;2023-07-29T00:22:19;95331.16;;;18.96;74.39
81608;BME280;71022;48.122;11.576;2023-07-29T00:24:51;95329.28;;;18.86;74.73
81608;BME280;71022;48.122;11.576;2023-07-29T00:27:21;95332.00;;;18.93;74.39
81608;BME280;71022;48.122;11.576;2023-07-29T00:29:48;95329.16;;;18.97;74.30
81608;BME280;71022;48.122;11.576;2023-07-29T00:32:15;95323.66;;;18.93;74.15
81608;BME280;71022;48.122;11.576;2023-07-29T00:34:44;95323.94;;;19.02;73.94
81608;BME280;71022;48.122;11.576;2023-07-29T00:37:11;95320.06;;;18.93;73.95
81608;BME280;71022;48.122;11.576;2023-07-29T00:39:39;95326.66;;;19.06;73.67
81608;BME280;71022;48.122;11.576;2023-07-29T00:42:06;95329.50;;;19.02;73.88
81608;BME280;71022;48.122;11.576;2023-07-29T00:44:33;95321.06;;;19.09;73.61
81608;BME280;71022;48.122;11.576;2023-07-29T00:47:02;95321.31;;;18.85;74.37
81608;BME280;71022;48.122;11.576;2023-07-29T00:49:30;95320.97;;;18.83;74.93
81608;BME280;71022;48.122;11.576;2023-07-29T00:51:57;95316.50;;;18.92;74.09
81608;BME280;71022;48.122;11.576;2023-07-29T00:54:27;95319.75;;;18.84;74.34
81608;BME280;71022;48.122;11.576;2023-07-29T00:57:03;95321.00;;;18.79;74.64
81608;BME280;71022;48.122;11.576;2023-07-29T00:59:30;95311.09;;;18.78;74.72
81608;BME280;71022;48.122;11.576;2023-07-29T01:01:59;95315.22;;;18.63;75.10
81608;BME280;71022;48.122;11.576;2023-07-29T01:04:26;95315.25;;;18.56;75.29
81608;BME280;71022;48.122;11.576;2023-07-29T01:07:07;95315.94;;;18.67;74.89
81608;BME280;71022;48.122;11.576;2023-07-29T01:09:46;95320.56;;;18.84;73.87
81608;BME280;71022;48.122;11.576;2023-07-29T01:12:26;95326.06;;;18.88;74.04
81608;BME280;71022;48.122;11.576;2023-07-29T01:15:00;95311.91;;;18.75;74.45
81608;BME280;71022;48.122;11.576;2023-07-29T01:17:56;95306.25;;;18.82;74.15
81608;BME280;71022;48.122;11.576;2023-07-29T01:20:26;95312.94;;;18.88;73.72
81608;BME280;71022;48.122;11.576;2023-07-29T01:22:55;95308.50;;;18.94;73.68
81608;BME280;71022;48.122;11.576;2023-07-29T01:25:22;95294.44;;;18.71;74.47
81608;BME280;71022;48.122;11.576;2023-07-29T01:27:50;95304.72;;;18.77;74.13
81608;BME280;71022;48.122;11.576;2023-07-29T01:30:20;95303.16;;;18.73;74.26
81608;BME280;71022;48.122;11.576;2023-07-29T01:32:59;95300.78;;;18.75;74.09
81608;BME280;71022;48.122;11.576;2023-07-29T01:35:50;95297.91;;;18.82;73.68
81608;BME280;71022;48.122;11.576;2023-07-29T01:38:28;95287.72;;;18.68;74.40
81608;BME280;71022;48.122;11.576;2023-07-29T01:41:01;95289.72;;;18.68;74.28
81608;BME280;71022;48.122;11.576;2023-07-29T01:43:29;95291.31;;;18.69;74.19
81608;BME280;71022;48.122;11.576;2023-07-29T01:45:57;95292.50;;;18.68;74.20
81608;BME280;71022;48.122;11.576;2023-07-29T01:48:24;95286.91;;;18.71;73.86
81608;BME280;71022;48.122;11.576;2023-07-29T01:50:51;95291.19;;;18.79;73.64
81608;BME280;71022;48.122;11.576;2023-07-29T01:53:19;95293.47;;;18.88;72.99
81608;BME280;71022;48.122;11.576;2023-07-29T01:55:46;95292.56;;;18.98;73.05
81608;BME280;71022;48.122;11.576;2023-07-29T01:58:13;95294.19;;;18.96;73.28
81608;BME280;71022;48.122;11.576;2023-07-29T02:00:45;95286.25;;;18.94;73.48
81608;BME280;71022;48.122;11.576;2023-07-29T02:03:13;95283.94;;;18.89;73.55
81608;BME280;71022;48.122;11.576;2023-07-29T02:05:40;95285.00;;;18.99;72.93
81608;BME280;71022;48.122;11.576;2023-07-29T02:08:10;95286.47;;;19.10;72.65
81608;BME280;71022;48.122;11.576;2023-07-29T02:10:38;95287.03;;;18.95;73.13
81608;BME280;71022;48.122;11.576;2023-07-29T02:13:06;95284.78;;;18.83;73.33
81608;BME280;71022;48.122;11.576;2023-07-29T02:15:33;95283.25;;;18.78;73.41
81608;BME280;71022;48.122;11.576;2023-07-29T02:18:00;95276.13;;;18.73;73.64
81608;BME280;71022;48.122;11.576;2023-07-29T02:20:29;95279.03;;;18.63;73.92
81608;BME280;71022;48.122;11.576;2023-07-29T02:22:56;95275.41;;;18.69;73.73
81608;BME280;71022;48.122;11.576;2023-07-29T02:25:23;95277.00;;;18.67;73.62
81608;BME280;71022;48.122;11.576;2023-07-29T02:27:51;95273.75;;;18.75;72.82
81608;BME280;71022;48.122;11.576;2023-07-29T02:30:20;95279.59;;;18.85;72.97
81608;BME280;71022;48.122;11.576;2023-07-29T02:32:47;95279.69;;;18.77;73.35
81608;BME280;71022;48.122;11.576;2023-07-29T02:35:15;95283.78;;;18.66;73.61
81608;BME280;71022;48.122;11.576;2023-07-29T02:37:42;95290.53;;;18.65;73.57
81608;BME280;71022;48.122;11.576;2023-07-29T02:40:10;95293.34;;;18.61;73.62
81608;BME280;71022;48.122;11.576;2023-07-29T02:42:39;95297.75;;;18.59;73.80
81608;BME280;71022;48.122;11.576;2023-07-29T02:45:07;95297.88;;;18.45;74.65
81608;BME280;71022;48.122;11.576;2023-07-29T02:47:37;95294.75;;;18.36;74.91
81608;BME280;71022;48.122;11.576;2023-07-29T02:50:05;95294.25;;;18.03;76.10
81608;BME280;71022;48.122;11.576;2023-07-29T02:52:32;95287.59;;;17.90;76.35
81608;BME280;71022;48.122;11.576;2023-07-29T02:54:59;95289.97;;;17.92;76.06
81608;BME280;71022;48.122;11.576;2023-07-29T02:57:27;95288.84;;;17.82;76.47
81608;BME280;71022;48.122;11.576;2023-07-29T02:59:54;95284.94;;;17.69;77.17
81608;BME280;71022;48.122;11.576;2023-07-29T03:02:21;95293.69;;;17.67;77.38
81608;BME280;71022;48.122;11.576;2023-07-29T03:04:49;95280.91;;;17.77;76.60
81608;BME280;71022;48.122;11.576;2023-07-29T03:07:16;95291.13;;;17.98;76.11
81608;BME280;71022;48.122;11.576;2023-07-29T03:09:44;95287.06;;;18.09;75.32
81608;BME280;71022;48.122;11.576;2023-07-29T03:12:12;95281.38;;;18.23;74.94
81608;BME280;71022;48.122;11.576;2023-07-29T03:14:41;95285.72;;;18.24;74.92
81608;BME280;71022;48.122;11.576;2023-07-29T03:17:09;95279.72;;;18.30;74.39
81608;BME280;71022;48.122;11.576;2023-07-29T03:19:36;95276.41;;;18.45;73.69
81608;BME280;71022;48.122;11.576;2023-07-29T03:22:03;95285.19;;;18.40;73.86
81608;BME280;71022;48.122;11.576;2023-07-29T03:24:31;95286.06;;;18.34;73.74
81608;BME280;71022;48.122;11.576;2023-07-29T03:26:58;95285.34;;;18.22;74.59
81608;BME280;71022;48.122;11.576;2023-07-29T03:29:25;95277.41;;;18.24;73.81
81608;BME280;71022;48.122;11.576;2023-07-29T03:31:53;95273.78;;;18.28;74.10
81608;BME280;71022;48.122;11.576;2023-07-29T03:34:20;95259.06;;;18.31;73.55
81608;BME280;71022;48.122;11.576;2023-07-29T03:36:47;95263.88;;;18.27;73.73
81608;BME280;71022;48.122;11.576;2023-07-29T03:39:15;95271.03;;;18.24;73.81
81608;BME280;71022;48.122;11.576;2023-07-29T03:41:43;95273.41;;;18.22;74.16
81608;BME280;71022;48.122;11.576;2023-07-29T03:44:11;95277.34;;;18.28;73.63
81608;BME280;71022;48.122;11.576;2023-07-29T03:46:38;95283.81;;;18.14;74.30
81608;BME280;71022;48.122;11.576;2023-07-29T03:49:08;95280.59;;;18.19;74.36
81608;BME280;71022;48.122;11.576;2023-07-29T03:51:35;95287.94;;;18.44;72.78
81608;BME280;71022;48.122;11.576;2023-07-29T03:54:02;95285.16;;;18.44;72.62
81608;BME280;71022;48.122;11.576;2023-07-29T03:56:29;95289.22;;;18.32;72.95
81608;BME280;71022;48.122;11.576;2023-07-29T03:59:03;95284.50;;;18.25;73.27
81608;BME280;71022;48.122;11.576;2023-07-29T04:01:30;95281.72;;;18.29;72.91
81608;BME280;71022;48.122;11.576;2023-07-29T04:03:58;95281.19;;;18.41;72.51
81608;BME280;71022;48.122;11.576;2023-07-29T04:06:26;95282.00;;;18.42;72.66
81608;BME280;71022;48.122;11.576;2023-07-29T04:08:55;95278.44;;;18.38;72.80
81608;BME280;71022;48.122;11.576;2023-07-29T04:11:23;95268.81;;;18.53;72.48
81608;BME280;71022;48.122;11.576;2023-07-29T04:13:50;95262.22;;;18.33;73.39
81608;BME280;71022;48.122;11.576;2023-07-29T04:16:17;95254.47;;;18.10;74.40
81608;BME280;71022;48.122;11.576;2023-07-29T04:18:45;95245.44;;;17.99;74.70
81608;BME280;71022;48.122;11.576;2023-07-29T04:21:12;95245.72;;;18.11;74.46
81608;BME280;71022;48.122;11.576;2023-07-29T04:23:39;95242.13;;;18.14;74.21
81608;BME280;71022;48.122;11.576;2023-07-29T04:26:07;95238.38;;;18.32;73.66
81608;BME280;71022;48.122;11.576;2023-07-29T04:28:34;95239.28;;;18.21;74.53
81608;BME280;71022;48.122;11.576;2023-07-29T04:31:01;95246.41;;;18.22;74.00
81608;BME280;71022;48.122;11.576;2023-07-29T04:33:29;95242.91;;;18.18;74.19
81608;BME280;71022;48.122;11.576;2023-07-29T04:35:57;95228.09;;;18.29;73.49
81608;BME280;71022;48.122;11.576;2023-07-29T04:38:30;95240.94;;;18.15;74.22
81608;BME280;71022;48.122;11.576;2023-07-29T04:40:58;95242.50;;;18.16;74.39
81608;BME280;71022;48.122;11.576;2023-07-29T04:43:31;95245.78;;;18.04;74.80
81608;BME280;71022;48.122;11.576;2023-07-29T04:45:59;95240.13;;;18.18;74.23
81608;BME280;71022;48.122;11.576;2023-07-29T04:48:27;95240.03;;;18.25;74.02
81608;BME280;71022;48.122;11.576;2023-07-29T04:51:00;95251.47;;;18.35;73.66
81608;BME280;71022;48.122;11.576;2023-07-29T04:53:27;95244.59;;;18.50;73.26
81608;BME280;71022;48.122;11.576;2023-07-29T04:55:54;95249.38;;;18.49;72.90
81608;BME280;71022;48.122;11.576;2023-07-29T04:58:21;95245.75;;;18.52;73.37
81608;BME280;71022;48.122;11.576;2023-07-29T05:00:49;95247.81;;;18.45;73.56
81608;BME280;71022;48.122;11.576;2023-07-29T05:03:16;95242.50;;;18.61;73.37
81608;BME280;71022;48.122;11.576;2023-07-29T05:05:43;95240.31;;;18.79;72.47
81608;BME280;71022;48.122;11.576;2023-07-29T05:08:11;95234.66;;;18.86;72.51
81608;BME280;71022;48.122;11.576;2023-07-29T05:10:38;95237.16;;;18.77;73.06
81608;BME280;71022;48.122;11.576;2023-07-29T05:13:05;95222.84;;;18.78;73.04
81608;BME280;71022;48.122;11.576;2023-07-29T05:15:34;95223.22;;;18.81;72.74
81608;BME280;71022;48.122;11.576;2023-07-29T05:18:01;95227.44;;;18.92;72.59
81608;BME280;71022;48.122;11.576;2023-07-29T05:20:28;95215.03;;;18.97;72.52
81608;BME280;71022;48.122;11.576;2023-07-29T05:22:55;95217.78;;;19.00;72.01
81608;BME280;71022;48.122;11.576;2023-07-29T05:25:23;95213.25;;;19.13;71.83
81608;BME280;71022;48.122;11.576;2023-07-29T05:27:50;95207.31;;;19.11;71.95
81608;BME280;71022;48.122;11.576;2023-07-29T05:30:17;95205.78;;;19.07;72.39
81608;BME280;71022;48.122;11.576;2023-07-29T05:32:45;95214.84;;;19.14;71.71
81608;BME280;71022;48.122;11.576;2023-07-29T05:35:12;95210.63;;;19.29;71.29
81608;BME280;71022;48.122;11.576;2023-07-29T05:37:40;95218.84;;;19.44;70.50
81608;BME280;71022;48.122;11.576;2023-07-29T05:40:08;95227.50;;;19.49;70.58
81608;BME280;71022;48.122;11.576;2023-07-29T05:42:36;95234.91;;;19.59;71.21
81608;BME280;71022;48.122;11.576;2023-07-29T05:45:04;95232.25;;;19.52;71.67
81608;BME280;71022;48.122;11.576;2023-07-29T05:47:31;95235.56;;;19.44;71.44
81608;BME280;71022;48.122;11.576;2023-07-29T05:49:58;95240.09;;;19.27;71.91
81608;BME280;71022;48.122;11.576;2023-07-29T05:52:30;95236.53;;;19.26;71.95
81608;BME280;71022;48.122;11.576;2023-07-29T05:54:57;95234.97;;;19.25;71.98
81608;BME280;71022;48.122;11.576;2023-07-29T05:57:24;95235.34;;;19.27;71.48
81608;BME280;71022;48.122;11.576;2023-07-29T05:59:51;95239.78;;;19.21;71.77
81608;BME280;71022;48.122;11.576;2023-07-29T06:02:19;95280.91;;;19.10;72.42
81608;BME280;71022;48.122;11.576;2023-07-29T06:04:46;95322.59;;;19.17;72.53
81608;BME280;71022;48.122;11.576;2023-07-29T06:07:13;95305.94;;;19.10;75.62
81608;BME280;71022;48.122;11.576;2023-07-29T06:09:44;95276.31;;;18.56;78.92
81608;BME280;71022;48.122;11.576;2023-07-29T06:12:12;95251.09;;;18.33;78.61
81608;BME280;71022;48.122;11.576;2023-07-29T06:14:39;95221.06;;;18.17;78.91
81608;BME280;71022;48.122;11.576;2023-07-29T06:17:06;95219.13;;;18.10;79.06
81608;BME280;71022;48.122;11.576;2023-07-29T06:19:34;95225.78;;;18.23;78.51
81608;BME280;71022;48.122;11.576;2023-07-29T06:22:01;95229.72;;;18.26;78.99
81608;BME280;71022;48.122;11.576;2023-07-29T06:24:29;95219.34;;;18.30;79.36
81608;BME280;71022;48.122;11.576;2023-07-29T06:26:56;95229.53;;;18.44;77.54
81608;BME280;71022;48.122;11.576;2023-07-29T06:29:24;95248.97;;;18.51;77.69
81608;BME280;71022;48.122;11.576;2023-07-29T06:31:51;95235.09;;;18.44;78.51
81608;BME280;71022;48.122;11.576;2023-07-29T06:34:18;95250.09;;;18.57;78.46
81608;BME280;71022;48.122;11.576;2023-07-29T06:36:45;95254.88;;;18.56;77.70
81608;BME280;71022;48.122;11.576;2023-07-29T06:39:12;95257.22;;;18.58;78.73
81608;BME280;71022;48.122;11.576;2023-07-29T06:41:39;95264.44;;;18.52;78.97
81608;BME280;71022;48.122;11.576;2023-07-29T06:44:08;95273.09;;;18.61;77.50
81608;BME280;71022;48.122;11.576;2023-07-29T06:46:35;95270.59;;;18.70;78.31
81608;BME280;71022;48.122;11.576;2023-07-29T06:49:03;95299.25;;;18.67;78.11
81608;BME280;71022;48.122;11.576;2023-07-29T06:51:30;95309.84;;;18.35;79.39
81608;BME280;71022;48.122;11.576;2023-07-29T06:53:59;95318.63;;;18.33;79.89
81608;BME280;71022;48.122;11.576;2023-07-29T06:56:26;95315.50;;;18.28;79.44
81608;BME280;71022;48.122;11.576;2023-07-29T06:58:54;95316.88;;;17.98;80.46
81608;BME280;71022;48.122;11.576;2023-07-29T07:01:21;95332.06;;;17.83;81.08
81608;BME280;71022;48.122;11.576;2023-07-29T07:03:48;95333.16;;;18.00;80.75
81608;BME280;71022;48.122;11.576;2023-07-29T07:06:15;95336.16;;;18.23;80.18
81608;BME280;71022;48.122;11.576;2023-07-29T07:08:42;95320.94;;;18.42;79.59
81608;BME280;71022;48.122;11.576;2023-07-29T07:11:11;95316.88;;;18.53;79.18
81608;BME280;71022;48.122;11.576;2023-07-29T07:13:38;95316.09;;;18.49;78.50
81608;BME280;71022;48.122;11.576;2023-07-29T07:16:05;95320.81;;;18.56;79.12
81608;BME280;71022;48.122;11.576;2023-07-29T07:18:32;95326.34;;;18.59;78.91
81608;BME280;71022;48.122;11.576;2023-07-29T07:21:00;95323.06;;;18.71;78.71
81608;BME280;71022;48.122;11.576;2023-07-29T07:23:27;95314.84;;;18.98;77.77
81608;BME280;71022;48.122;11.576;2023-07-29T07:25:54;95317.63;;;18.98;77.57
81608;BME280;71022;48.122;11.576;2023-07-29T07:28:21;95316.50;;;18.92;77.83
81608;BME280;71022;48.122;11.576;2023-07-29T07:30:48;95319.75;;;18.84;78.08
81608;BME280;71022;48.122;11.576;2023-07-29T07:33:15;95312.25;;;18.81;78.59
81608;BME280;71022;48.122;11.576;2023-07-29T07:35:43;95298.38;;;18.77;78.96
81608;BME280;71022;48.122;11.576;2023-07-29T07:38:10;95284.91;;;18.72;79.43
81608;BME280;71022;48.122;11.576;2023-07-29T07:40:37;95286.47;;;18.73;79.89
81608;BME280;71022;48.122;11.576;2023-07-29T07:43:04;95277.22;;;18.83;79.30
81608;BME280;71022;48.122;11.576;2023-07-29T07:45:32;95272.16;;;18.74;79.77
81608;BME280;71022;48.122;11.576;2023-07-29T07:47:59;95261.06;;;18.71;79.44
81608;BME280;71022;48.122;11.576;2023-07-29T07:50:30;95246.25;;;18.81;79.13
81608;BME280;71022;48.122;11.576;2023-07-29T07:52:58;95247.22;;;19.01;78.71
81608;BME280;71022;48.122;11.576;2023-07-29T07:55:25;95246.38;;;19.04;78.83
81608;BME280;71022;48.122;11.576;2023-07-29T07:57:52;95245.19;;;19.05;78.87
81608;BME280;71022;48.122;11.576;2023-07-29T08:00:20;95249.53;;;19.06;79.52
81608;BME280;71022;48.122;11.576;2023-07-29T08:02:47;95251.19;;;19.00;78.65
81608;BME280;71022;48.122;11.576;2023-07-29T08:05:14;95264.78;;;18.95;79.00
81608;BME280;71022;48.122;11.576;2023-07-29T08:07:41;95267.22;;;18.89;79.64
81608;BME280;71022;48.122;11.576;2023-07-29T08:10:09;95259.38;;;18.81;81.10
81608;BME280;71022;48.122;11.576;2023-07-29T08:12:36;95253.78;;;18.84;81.41
81608;BME280;71022;48.122;11.576;2023-07-29T08:15:04;95257.69;;;18.90;80.56
81608;BME280;71022;48.122;11.576;2023-07-29T08:17:32;95264.81;;;18.91;81.50
81608;BME280;71022;48.122;11.576;2023-07-29T08:19:59;95262.16;;;19.14;80.84
81608;BME280;71022;48.122;11.576;2023-07-29T08:22:26;95261.22;;;19.24;80.88
81608;BME280;71022;48.122;11.576;2023-07-29T08:24:53;95249.25;;;19.27;80.88
81608;BME280;71022;48.122;11.576;2023-07-29T08:27:21;95254.03;;;19.27;80.75
81608;BME280;71022;48.122;11.576;2023-07-29T08:29:48;95265.88;;;19.34;80.37
81608;BME280;71022;48.122;11.576;2023-07-29T08:32:15;95255.03;;;19.44;80.23
81608;BME280;71022;48.122;11.576;2023-07-29T08:34:42;95252.81;;;19.62;80.01
81608;BME280;71022;48.122;11.576;2023-07-29T08:37:10;95251.88;;;19.68;79.78
81608;BME280;71022;48.122;11.576;2023-07-29T08:39:37;95257.91;;;19.67;79.47
81608;BME280;71022;48.122;11.576;2023-07-29T08:42:07;95270.09;;;19.76;79.58
81608;BME280;71022;48.122;11.576;2023-07-29T08:44:40;95257.31;;;19.79;79.09
81608;BME280;71022;48.122;11.576;2023-07-29T08:47:08;95258.50;;;19.78;78.04
81608;BME280;71022;48.122;11.576;2023-07-29T08:49:37;95262.06;;;19.82;78.38
81608;BME280;71022;48.122;11.576;2023-07-29T08:52:07;95265.38;;;19.73;78.09
81608;BME280;71022;48.122;11.576;2023-07-29T08:54:35;95262.88;;;19.79;78.53
81608;BME280;71022;48.122;11.576;2023-07-29T08:57:02;95266.78;;;19.85;78.79
81608;BME280;71022;48.122;11.576;2023-07-29T08:59:30;95262.56;;;20.00;77.03
81608;BME280;71022;48.122;11.576;2023-07-29T09:01:58;95264.13;;;20.01;78.81
81608;BME280;71022;48.122;11.576;2023-07-29T09:04:25;95262.44;;;20.07;75.88
81608;BME280;71022;48.122;11.576;2023-07-29T09:06:53;95267.06;;;20.17;76.91
81608;BME280;71022;48.122;11.576;2023-07-29T09:09:22;95267.22;;;20.33;75.66
81608;BME280;71022;48.122;11.576;2023-07-29T09:11:50;95273.72;;;20.50;75.94
81608;BME280;71022;48.122;11.576;2023-07-29T09:14:17;95272.19;;;20.69;76.56
81608;BME280;71022;48.122;11.576;2023-07-29T09:16:44;95271.41;;;21.11;72.75
81608;BME280;71022;48.122;11.576;2023-07-29T09:19:13;95272.03;;;21.38;72.48
81608;BME280;71022;48.122;11.576;2023-07-29T09:21:41;95270.88;;;21.72;72.45
81608;BME280;71022;48.122;11.576;2023-07-29T09:24:08;95263.28;;;22.40;70.82
81608;BME280;71022;48.122;11.576;2023-07-29T09:26:36;95267.84;;;23.11;65.89
81608;BME280;71022;48.122;11.576;2023-07-29T09:29:06;95265.31;;;22.72;65.86
81608;BME280;71022;48.122;11.576;2023-07-29T09:31:34;95271.13;;;22.94;67.22
81608;BME280;71022;48.122;11.576;2023-07-29T09:34:03;95266.56;;;23.00;63.61
81608;BME280;71022;48.122;11.576;2023-07-29T09:36:32;95265.13;;;23.37;64.60
81608;BME280;71022;48.122;11.576;2023-07-29T09:39:00;95259.56;;;23.49;61.77
81608;BME280;71022;48.122;11.576;2023-07-29T09:41:28;95256.13;;;23.58;61.03
81608;BME280;71022;48.122;11.576;2023-07-29T09:44:02;95258.38;;;23.76;61.77
81608;BME280;71022;48.122;11.576;2023-07-29T09:46:37;95259.53;;;23.91;59.38
81608;BME280;71022;48.122;11.576;2023-07-29T09:49:07;95254.72;;;24.04;59.85
81608;BME280;71022;48.122;11.576;2023-07-29T09:51:38;95253.16;;;24.28;59.84
81608;BME280;71022;48.122;11.576;2023-07-29T09:54:06;95249.66;;;24.11;59.73
81608;BME280;71022;48.122;11.576;2023-07-29T09:56:40;95250.00;;;24.26;59.98
81608;BME280;71022;48.122;11.576;2023-07-29T09:59:08;95245.59;;;24.50;56.82
81608;BME280;71022;48.122;11.576;2023-07-29T10:01:35;95241.03;;;24.31;58.24
81608;BME280;71022;48.122;11.576;2023-07-29T10:04:04;95238.53;;;24.33;57.61
81608;BME280;71022;48.122;11.576;2023-07-29T10:06:34;95237.09;;;24.03;60.04
81608;BME280;71022;48.122;11.576;2023-07-29T10:09:02;95240.09;;;24.09;59.47
81608;BME280;71022;48.122;11.576;2023-07-29T10:11:30;95241.00;;;24.06;60.88
81608;BME280;71022;48.122;11.576;2023-07-29T10:14:00;95224.28;;;23.90;62.15
81608;BME280;71022;48.122;11.576;2023-07-29T10:16:36;95231.25;;;24.10;58.94
81608;BME280;71022;48.122;11.576;2023-07-29T10:19:07;95231.59;;;24.25;57.99
81608;BME280;71022;48.122;11.576;2023-07-29T10:21:36;95233.25;;;24.22;58.79
81608;BME280;71022;48.122;11.576;2023-07-29T10:24:09;95223.28;;;24.34;57.42
81608;BME280;71022;48.122;11.576;2023-07-29T10:26:40;95227.22;;;24.84;56.55
81608;BME280;71022;48.122;11.576;2023-07-29T10:29:12;95232.91;;;24.93;55.79
81608;BME280;71022;48.122;11.576;2023-07-29T10:31:43;95221.50;;;25.09;55.99
81608;BME280;71022;48.122;11.576;2023-07-29T10:34:10;95213.63;;;25.04;56.01
81608;BME280;71022;48.122;11.576;2023-07-29T10:36:39;95215.34;;;25.23;56.25
81608;BME280;71022;48.122;11.576;2023-07-29T10:39:07;95205.94;;;25.17;52.90
81608;BME280;71022;48.122;11.576;2023-07-29T10:41:54;95220.44;;;25.15;54.01
81608;BME280;71022;48.122;11.576;2023-07-29T10:49:45;95225.00;;;25.22;53.77
81608;BME280;71022;48.122;11.576;2023-07-29T10:52:14;95207.53;;;25.27;55.93
81608;BME280;71022;48.122;11.576;2023-07-29T10:54:47;95209.31;;;25.12;54.09
81608;BME280;71022;48.122;11.576;2023-07-29T10:57:19;95194.56;;;24.99;53.92
81608;BME280;71022;48.122;11.576;2023-07-29T10:59:57;95210.56;;;24.76;55.39
81608;BME280;71022;48.122;11.576;2023-07-29T11:02:29;95194.69;;;24.95;55.76
81608;BME280;71022;48.122;11.576;2023-07-29T11:04:58;95198.78;;;25.25;53.33
81608;BME280;71022;48.122;11.576;2023-07-29T11:07:26;95200.81;;;25.46;53.37
81608;BME280;71022;48.122;11.576;2023-07-29T11:09:59;95201.72;;;25.43;54.52
81608;BME280;71022;48.122;11.576;2023-07-29T11:17:51;95195.22;;;25.03;53.07
81608;BME280;71022;48.122;11.576;2023-07-29T11:22:52;95221.63;;;24.58;51.28
81608;BME280;71022;48.122;11.576;2023-07-29T11:25:21;95210.16;;;24.18;51.88
81608;BME280;71022;48.122;11.576;2023-07-29T11:27:51;95220.63;;;23.39;53.06
81608;BME280;71022;48.122;11.576;2023-07-29T11:30:19;95221.47;;;22.82;54.39
81608;BME280;71022;48.122;11.576;2023-07-29T11:32:46;95224.06;;;22.89;54.61
81608;BME280;71022;48.122;11.576;2023-07-29T11:35:16;95221.34;;;23.14;53.58
81608;BME280;71022;48.122;11.576;2023-07-29T11:37:45;95210.91;;;23.43;53.86
81608;BME280;71022;48.122;11.576;2023-07-29T11:40:15;95216.31;;;23.50;53.02
81608;BME280;71022;48.122;11.576;2023-07-29T11:42:43;95217.06;;;23.51;53.23
81608;BME280;71022;48.122;11.576;2023-07-29T11:45:11;95208.56;;;23.54;52.31
81608;BME280;71022;48.122;11.576;2023-07-29T11:47:38;95207.88;;;23.63;52.35
81608;BME280;71022;48.122;11.576;2023-07-29T11:50:07;95207.34;;;23.55;52.97
81608;BME280;71022;48.122;11.576;2023-07-29T11:52:40;95210.91;;;23.68;52.81
81608;BME280;71022;48.122;11.576;2023-07-29T11:55:08;95209.00;;;23.65;53.07
81608;BME280;71022;48.122;11.576;2023-07-29T11:57:37;95209.25;;;23.71;53.31
81608;BME280;71022;48.122;11.576;2023-07-29T12:00:06;95213.38;;;24.04;52.86
81608;BME280;71022;48.122;11.576;2023-07-29T12:02:38;95202.84;;;24.21;52.21
81608;BME280;71022;48.122;11.576;2023-07-29T12:05:08;95200.81;;;24.09;52.35
81608;BME280;71022;48.122;11.576;2023-07-29T12:07:38;95193.97;;;24.22;52.47
81608;BME280;71022;48.122;11.576;2023-07-29T12:10:06;95186.53;;;24.29;52.69
81608;BME280;71022;48.122;11.576;2023-07-29T12:12:40;95188.31;;;24.48;52.62
81608;BME280;71022;48.122;11.576;2023-07-29T12:15:10;95186.69;;;24.59;52.12
81608;BME280;71022;48.122;11.576;2023-07-29T12:17:41;95183.66;;;24.66;51.05
81608;BME280;71022;48.122;11.576;2023-07-29T12:20:10;95178.66;;;24.49;51.34
81608;BME280;71022;48.122;11.576;2023-07-29T12:22:38;95173.31;;;24.63;50.79
81608;BME280;71022;48.122;11.576;2023-07-29T12:25:06;95171.75;;;24.97;51.33
81608;BME280;71022;48.122;11.576;2023-07-29T12:27:34;95170.31;;;25.14;50.64
81608;BME280;71022;48.122;11.576;2023-07-29T12:30:01;95174.63;;;25.06;50.60
81608;BME280;71022;48.122;11.576;2023-07-29T12:32:31;95168.91;;;25.18;50.68
81608;BME280;71022;48.122;11.576;2023-07-29T12:34:58;95166.03;;;25.31;50.65
81608;BME280;71022;48.122;11.576;2023-07-29T12:37:32;95165.78;;;25.16;51.23
81608;BME280;71022;48.122;11.576;2023-07-29T12:40:00;95163.31;;;24.97;51.02
81608;BME280;71022;48.122;11.576;2023-07-29T12:42:27;95153.47;;;24.79;51.24
81608;BME280;71022;48.122;11.576;2023-07-29T12:44:55;95141.97;;;24.65;51.32
81608;BME280;71022;48.122;11.576;2023-07-29T12:47:22;95135.41;;;24.46;51.54
81608;BME280;71022;48.122;11.576;2023-07-29T12:49:49;95145.59;;;24.31;52.76
81608;BME280;71022;48.122;11.576;2023-07-29T12:52:16;95162.00;;;24.20;53.01
81608;BME280;71022;48.122;11.576;2023-07-29T12:54:43;95187.47;;;24.00;54.42
81608;BME280;71022;48.122;11.576;2023-07-29T12:57:11;95217.00;;;23.80;56.97
81608;BME280;71022;48.122;11.576;2023-07-29T12:59:38;95212.91;;;23.01;58.22
81608;BME280;71022;48.122;11.576;2023-07-29T13:02:05;95189.41;;;22.83;59.08
81608;BME280;71022;48.122;11.576;2023-07-29T13:04:34;95165.19;;;22.31;62.22
81608;BME280;71022;48.122;11.576;2023-07-29T13:07:01;95191.28;;;21.96;64.43
81608;BME280;71022;48.122;11.576;2023-07-29T13:09:28;95200.84;;;21.79;65.79